createdAt,value
2022-12-28T00:01:47.597Z,4.72
2022-12-28T00:04:15.645Z,4.45
2022-12-28T00:06:43.069Z,3.92
2022-12-28T00:09:12.431Z,4.10
2022-12-28T00:11:39.521Z,5.13
2022-12-28T00:14:07.707Z,4.50
2022-12-28T00:16:38.276Z,4.40
2022-12-28T00:19:14.174Z,4.32
2022-12-28T00:21:42.038Z,4.38
2022-12-28T00:24:21.243Z,4.57
2022-12-28T00:26:48.872Z,3.75
2022-12-28T00:29:16.520Z,3.92
2022-12-28T00:31:46.098Z,3.72
2022-12-28T00:34:13.930Z,4.50
2022-12-28T00:37:08.433Z,4.05
2022-12-28T00:39:28.436Z,4.82
2022-12-28T00:41:55.477Z,4.50
2022-12-28T00:44:22.584Z,4.18
2022-12-28T00:46:49.722Z,4.57
2022-12-28T00:49:16.758Z,4.22
2022-12-28T00:51:43.902Z,4.15
2022-12-28T00:54:10.992Z,3.60
2022-12-28T00:56:42.872Z,4.45
2022-12-28T00:59:10.860Z,3.67
2022-12-28T01:01:38.384Z,4.35
2022-12-28T01:04:06.514Z,4.53
2022-12-28T01:06:33.590Z,3.08
2022-12-28T01:09:00.971Z,4.55
2022-12-28T01:11:30.261Z,4.13
2022-12-28T01:14:00.272Z,4.82
2022-12-28T01:16:30.693Z,4.47
2022-12-28T01:19:00.156Z,3.83
2022-12-28T01:21:29.523Z,4.15
2022-12-28T01:23:59.443Z,4.28
2022-12-28T01:26:27.090Z,4.07
2022-12-28T01:28:54.342Z,4.53
2022-12-28T01:31:21.835Z,4.00
2022-12-28T01:33:49.299Z,4.72
2022-12-28T01:36:19.346Z,4.03
2022-12-28T01:38:47.375Z,4.63
2022-12-28T01:41:17.743Z,4.50
2022-12-28T01:44:08.098Z,4.05
2022-12-28T01:46:41.949Z,4.53
2022-12-28T01:49:19.809Z,4.43
2022-12-28T01:51:53.306Z,4.57
2022-12-28T01:54:23.346Z,4.82
2022-12-28T01:56:51.073Z,4.70
2022-12-28T01:59:22.040Z,4.40
2022-12-28T02:01:49.270Z,4.28
2022-12-28T02:04:16.831Z,5.15
2022-12-28T02:06:44.288Z,4.55
2022-12-28T02:09:19.486Z,4.50
2022-12-28T02:11:48.400Z,4.93
2022-12-28T02:14:16.098Z,5.22
2022-12-28T02:16:43.659Z,4.97
2022-12-28T02:19:29.213Z,5.63
2022-12-28T02:22:07.157Z,4.75
2022-12-28T02:25:13.059Z,5.15
2022-12-28T02:27:40.594Z,5.35
2022-12-28T02:30:10.916Z,5.85
2022-12-28T02:32:59.603Z,5.22
2022-12-28T02:35:59.115Z,5.55
2022-12-28T02:38:38.049Z,5.38
2022-12-28T02:41:09.294Z,4.90
2022-12-28T02:43:36.894Z,5.45
2022-12-28T02:46:43.803Z,4.85
2022-12-28T02:49:44.103Z,5.32
2022-12-28T02:52:21.953Z,5.72
2022-12-28T02:55:28.217Z,5.50
2022-12-28T02:58:02.776Z,6.25
2022-12-28T03:00:50.304Z,6.10
2022-12-28T03:03:52.018Z,5.40
2022-12-28T03:07:11.863Z,5.88
2022-12-28T03:09:54.871Z,6.15
2022-12-28T03:12:21.832Z,5.80
2022-12-28T03:15:03.901Z,6.60
2022-12-28T03:17:52.776Z,6.90
2022-12-28T03:20:42.950Z,6.53
2022-12-28T03:23:31.817Z,6.65
2022-12-28T03:26:21.180Z,6.60
2022-12-28T03:29:09.102Z,6.95
2022-12-28T03:31:38.074Z,7.45
2022-12-28T03:34:09.210Z,6.32
2022-12-28T03:36:56.948Z,7.22
2022-12-28T03:39:26.666Z,6.95
2022-12-28T03:42:17.214Z,7.20
2022-12-28T03:44:52.581Z,7.00
2022-12-28T03:47:23.804Z,8.18
2022-12-28T03:49:51.080Z,8.60
2022-12-28T03:52:18.533Z,8.55
2022-12-28T03:54:46.143Z,8.63
2022-12-28T03:57:13.250Z,7.63
2022-12-28T03:59:40.302Z,8.68
2022-12-28T04:02:08.440Z,8.43
2022-12-28T04:04:35.723Z,8.32
2022-12-28T04:07:02.766Z,9.20
2022-12-28T04:09:32.437Z,8.73
2022-12-28T04:11:59.544Z,9.95
2022-12-28T04:14:26.598Z,9.80
2022-12-28T04:16:53.673Z,9.77
2022-12-28T04:19:20.785Z,10.05
2022-12-28T04:21:47.955Z,9.88
2022-12-28T04:24:14.978Z,10.88
2022-12-28T04:26:42.071Z,10.32
2022-12-28T04:29:09.172Z,10.43
2022-12-28T04:31:36.629Z,10.38
2022-12-28T04:34:03.922Z,10.68
2022-12-28T04:36:31.003Z,11.82
2022-12-28T04:38:58.979Z,10.85
2022-12-28T04:41:26.356Z,10.82
2022-12-28T04:43:56.856Z,11.68
2022-12-28T04:46:24.968Z,11.65
2022-12-28T04:48:52.245Z,12.35
2022-12-28T04:51:23.979Z,12.52
2022-12-28T04:53:51.766Z,11.80
2022-12-28T04:56:20.534Z,11.52
2022-12-28T04:58:48.126Z,12.43
2022-12-28T05:01:17.915Z,11.80
2022-12-28T05:03:52.684Z,11.50
2022-12-28T05:06:24.382Z,12.48
2022-12-28T05:08:51.954Z,11.68
2022-12-28T05:11:22.080Z,12.18
2022-12-28T05:13:49.717Z,12.65
2022-12-28T05:16:19.353Z,12.20
2022-12-28T05:18:46.787Z,12.57
2022-12-28T05:21:15.583Z,12.60
2022-12-28T05:23:43.973Z,11.40
2022-12-28T05:26:13.362Z,12.48
2022-12-28T05:28:40.821Z,12.00
2022-12-28T05:31:11.997Z,12.00
2022-12-28T05:33:39.871Z,11.85
2022-12-28T05:36:09.471Z,10.27
2022-12-28T05:38:37.755Z,11.48
2022-12-28T05:41:11.018Z,9.20
2022-12-28T05:43:38.412Z,9.63
2022-12-28T05:46:08.794Z,9.30
2022-12-28T05:48:39.014Z,9.95
2022-12-28T05:51:08.735Z,9.02
2022-12-28T05:53:37.322Z,8.80
2022-12-28T05:56:14.377Z,8.93
2022-12-28T05:58:46.428Z,8.60
2022-12-28T06:01:16.465Z,7.80
2022-12-28T06:03:44.453Z,8.13
2022-12-28T06:06:14.234Z,7.75
2022-12-28T06:08:42.757Z,6.90
2022-12-28T06:11:15.086Z,7.60
2022-12-28T06:13:42.216Z,7.05
2022-12-28T06:16:15.712Z,7.50
2022-12-28T06:18:43.693Z,7.28
2022-12-28T06:21:14.700Z,6.78
2022-12-28T06:23:43.110Z,7.03
2022-12-28T06:26:13.182Z,6.65
2022-12-28T06:28:41.395Z,6.70
2022-12-28T06:31:14.397Z,6.25
2022-12-28T06:33:42.266Z,6.55
2022-12-28T06:36:19.613Z,5.95
2022-12-28T06:38:48.362Z,6.32
2022-12-28T06:41:17.134Z,5.40
2022-12-28T06:43:45.814Z,5.32
2022-12-28T06:46:14.641Z,5.05
2022-12-28T06:48:42.276Z,4.93
2022-12-28T06:51:14.874Z,5.20
2022-12-28T06:53:42.791Z,5.53
2022-12-28T06:56:14.794Z,5.75
2022-12-28T06:58:42.118Z,5.38
2022-12-28T07:01:13.437Z,4.78
2022-12-28T07:03:41.496Z,5.20
2022-12-28T07:06:08.897Z,4.95
2022-12-28T07:08:37.794Z,5.15
2022-12-28T07:11:06.844Z,5.00
2022-12-28T07:13:34.730Z,5.00
2022-12-28T07:16:07.740Z,4.28
2022-12-28T07:18:34.935Z,4.78
2022-12-28T07:21:09.225Z,5.13
2022-12-28T07:23:37.664Z,4.93
2022-12-28T07:26:13.736Z,5.15
2022-12-28T07:28:42.549Z,5.38
2022-12-28T07:31:12.289Z,4.80
2022-12-28T07:33:40.078Z,6.03
2022-12-28T07:36:13.398Z,8.25
2022-12-28T07:38:40.847Z,6.03
2022-12-28T07:41:11.744Z,5.68
2022-12-28T07:43:39.335Z,5.20
2022-12-28T07:46:10.751Z,5.47
2022-12-28T07:48:38.427Z,6.20
2022-12-28T07:51:09.052Z,5.10
2022-12-28T07:53:38.091Z,5.47
2022-12-28T07:56:06.455Z,5.20
2022-12-28T07:58:34.177Z,6.13
2022-12-28T08:01:10.174Z,5.70
2022-12-28T08:03:38.859Z,6.20
2022-12-28T08:06:20.102Z,7.65
2022-12-28T08:08:53.301Z,4.63
2022-12-28T08:11:23.524Z,4.53
2022-12-28T08:13:53.179Z,5.53
2022-12-28T08:16:22.284Z,6.28
2022-12-28T08:18:50.656Z,3.83
2022-12-28T08:21:21.157Z,5.55
2022-12-28T08:23:48.917Z,7.05
2022-12-28T08:26:19.998Z,4.03
2022-12-28T08:28:49.159Z,4.85
2022-12-28T08:31:22.426Z,4.78
2022-12-28T08:33:50.222Z,5.68
2022-12-28T08:36:17.336Z,5.30
2022-12-28T08:38:45.217Z,5.50
2022-12-28T08:41:15.529Z,6.25
2022-12-28T08:43:43.795Z,5.20
2022-12-28T08:46:16.240Z,6.57
2022-12-28T08:48:43.984Z,5.32
2022-12-28T08:51:26.945Z,5.25
2022-12-28T08:53:54.210Z,5.13
2022-12-28T08:56:27.849Z,5.88
2022-12-28T08:58:56.339Z,5.47
2022-12-28T09:01:29.437Z,6.07
2022-12-28T09:03:58.844Z,5.25
2022-12-28T09:06:30.230Z,5.32
2022-12-28T09:09:06.761Z,4.85
2022-12-28T09:11:36.444Z,4.22
2022-12-28T09:14:05.097Z,4.70
2022-12-28T09:16:33.346Z,5.43
2022-12-28T09:19:03.304Z,5.20
2022-12-28T09:21:35.103Z,4.25
2022-12-28T09:24:02.270Z,4.10
2022-12-28T09:26:32.182Z,4.35
2022-12-28T09:29:01.418Z,5.07
2022-12-28T09:31:31.137Z,5.10
2022-12-28T09:36:48.565Z,5.03
2022-12-28T09:39:19.015Z,5.30
2022-12-28T09:41:54.916Z,5.80
2022-12-28T09:44:49.918Z,5.47
2022-12-28T09:47:40.335Z,5.97
2022-12-28T09:50:19.193Z,5.32
2022-12-28T09:53:20.590Z,5.63
2022-12-28T09:56:03.256Z,5.20
2022-12-28T09:58:33.042Z,5.15
2022-12-28T10:01:03.259Z,4.70
2022-12-28T10:03:43.224Z,5.53
2022-12-28T10:06:15.916Z,5.78
2022-12-28T10:08:48.498Z,5.30
2022-12-28T10:11:23.841Z,6.35
2022-12-28T10:13:59.320Z,6.63
2022-12-28T10:16:30.112Z,7.32
2022-12-28T10:18:57.313Z,7.15
2022-12-28T10:21:32.455Z,8.82
2022-12-28T10:26:48.547Z,8.43
2022-12-28T10:29:20.854Z,8.27
2022-12-28T10:32:00.373Z,8.10
2022-12-28T10:34:33.594Z,7.55
2022-12-28T10:37:15.829Z,8.43
2022-12-28T10:39:56.640Z,7.18
2022-12-28T10:42:34.628Z,8.05
2022-12-28T10:45:07.881Z,7.93
2022-12-28T10:47:42.952Z,7.15
2022-12-28T10:50:39.462Z,7.70
2022-12-28T10:53:28.071Z,8.85
2022-12-28T10:56:22.848Z,6.35
2022-12-28T10:58:55.035Z,13.18
2022-12-28T11:01:29.826Z,7.28
2022-12-28T11:03:57.062Z,6.97
2022-12-28T11:06:35.037Z,6.80
2022-12-28T11:09:16.028Z,6.50
2022-12-28T11:11:47.720Z,6.22
2022-12-28T11:14:26.598Z,5.10
2022-12-28T11:16:53.605Z,5.72
2022-12-28T11:19:21.812Z,5.40
2022-12-28T11:21:49.431Z,5.50
2022-12-28T11:24:18.864Z,4.93
2022-12-28T11:26:49.434Z,5.20
2022-12-28T11:29:18.493Z,4.60
2022-12-28T11:31:56.804Z,4.60
2022-12-28T11:34:27.481Z,4.55
2022-12-28T11:36:55.480Z,4.15
2022-12-28T11:39:25.167Z,4.40
2022-12-28T11:42:27.669Z,3.80
2022-12-28T11:44:39.977Z,4.25
2022-12-28T11:47:15.998Z,3.65
2022-12-28T11:49:47.498Z,4.55
2022-12-28T11:52:17.307Z,5.97
2022-12-28T11:54:59.299Z,4.45
2022-12-28T11:57:43.763Z,5.00
2022-12-28T12:00:21.839Z,4.72
2022-12-28T12:03:01.024Z,5.28
2022-12-28T12:05:37.886Z,4.95
2022-12-28T12:08:16.909Z,3.90
2022-12-28T12:10:46.127Z,4.45
2022-12-28T12:13:25.238Z,6.40
2022-12-28T12:15:58.221Z,4.72
2022-12-28T12:18:28.458Z,4.43
2022-12-28T12:21:15.546Z,5.47
2022-12-28T12:23:48.881Z,3.70
2022-12-28T12:26:27.974Z,3.60
2022-12-28T12:29:04.780Z,3.65
2022-12-28T12:31:37.782Z,3.75
2022-12-28T12:34:20.828Z,4.05
2022-12-28T12:37:16.065Z,3.33
2022-12-28T12:39:51.135Z,3.60
2022-12-28T12:42:42.147Z,3.95
2022-12-28T12:45:30.708Z,4.03
2022-12-28T12:48:27.736Z,3.80
2022-12-28T12:51:13.155Z,3.67
2022-12-28T12:54:12.532Z,5.25
2022-12-28T12:57:01.199Z,4.80
2022-12-28T12:59:50.056Z,4.70
2022-12-28T13:02:23.334Z,5.43
2022-12-28T13:04:51.098Z,6.65
2022-12-28T13:07:25.017Z,4.20
2022-12-28T13:09:57.317Z,5.35
2022-12-28T13:12:25.133Z,5.00
2022-12-28T13:15:07.560Z,9.70
2022-12-28T13:17:39.495Z,9.85
2022-12-28T13:20:18.204Z,8.75
2022-12-28T13:22:47.396Z,3.50
2022-12-28T13:25:28.494Z,3.67
2022-12-28T13:27:57.072Z,3.03
2022-12-28T13:30:25.262Z,4.88
2022-12-28T13:33:03.364Z,4.50
2022-12-28T13:35:33.268Z,4.68
2022-12-28T13:38:09.211Z,4.20
2022-12-28T13:40:38.630Z,4.47
2022-12-28T13:43:30.124Z,4.20
2022-12-28T13:46:01.309Z,3.78
2022-12-28T13:48:30.724Z,3.30
2022-12-28T13:50:58.143Z,4.75
2022-12-28T13:53:28.829Z,4.53
2022-12-28T13:56:00.022Z,5.32
2022-12-28T13:58:34.110Z,4.00
2022-12-28T14:01:07.984Z,6.45
2022-12-28T14:03:41.361Z,3.17
2022-12-28T14:06:13.608Z,3.92
2022-12-28T14:08:42.059Z,2.92
2022-12-28T14:11:11.989Z,3.80
2022-12-28T14:13:39.953Z,3.97
2022-12-28T14:16:08.980Z,3.45
2022-12-28T14:18:38.571Z,3.60
2022-12-28T14:21:07.553Z,3.78
2022-12-28T14:23:37.700Z,3.85
2022-12-28T14:26:09.727Z,3.85
2022-12-28T14:28:41.948Z,3.38
2022-12-28T14:31:12.090Z,3.05
2022-12-28T14:33:55.956Z,3.53
2022-12-28T14:36:28.368Z,2.50
2022-12-28T14:39:02.728Z,2.00
2022-12-28T14:41:46.037Z,3.20
2022-12-28T14:44:22.798Z,3.25
2022-12-28T14:46:54.240Z,3.03
2022-12-28T14:49:30.277Z,2.95
2022-12-28T14:52:18.161Z,3.45
2022-12-28T14:54:52.615Z,3.20
2022-12-28T14:57:23.389Z,3.58
2022-12-28T15:00:14.670Z,2.85
2022-12-28T15:02:43.337Z,3.17
2022-12-28T15:05:42.817Z,2.60
2022-12-28T15:08:11.051Z,2.00
2022-12-28T15:10:42.579Z,2.95
2022-12-28T15:13:09.989Z,5.10
2022-12-28T15:15:37.942Z,6.63
2022-12-28T15:18:05.152Z,7.63
2022-12-28T15:20:32.675Z,4.43
2022-12-28T15:22:59.762Z,4.20
2022-12-28T15:25:27.116Z,4.18
2022-12-28T15:27:54.319Z,5.60
2022-12-28T15:30:28.818Z,2.38
2022-12-28T15:32:56.399Z,3.00
2022-12-28T15:35:23.502Z,5.60
2022-12-28T15:37:50.767Z,4.40
2022-12-28T15:40:17.888Z,2.35
2022-12-28T15:42:45.943Z,3.15
2022-12-28T15:45:14.083Z,2.63
2022-12-28T15:47:41.199Z,4.13
2022-12-28T15:50:08.994Z,2.88
2022-12-28T15:52:36.953Z,5.28
2022-12-28T15:55:04.430Z,5.07
2022-12-28T15:57:31.693Z,3.58
2022-12-28T15:59:58.738Z,3.10
2022-12-28T16:02:26.067Z,3.88
2022-12-28T16:04:53.240Z,4.10
2022-12-28T16:07:20.592Z,4.47
2022-12-28T16:09:47.789Z,5.60
2022-12-28T16:12:17.896Z,3.70
2022-12-28T16:14:46.822Z,5.05
2022-12-28T16:17:14.869Z,5.05
2022-12-28T16:19:42.143Z,4.30
2022-12-28T16:22:09.253Z,4.97
2022-12-28T16:24:36.972Z,4.13
2022-12-28T16:27:04.733Z,8.32
2022-12-28T16:29:31.898Z,10.75
2022-12-28T16:32:00.581Z,8.38
2022-12-28T16:34:28.433Z,6.57
2022-12-28T16:36:58.111Z,4.05
2022-12-28T16:39:29.767Z,3.33
2022-12-28T16:41:58.001Z,3.03
2022-12-28T16:44:27.234Z,3.15
2022-12-28T16:46:58.220Z,4.20
2022-12-28T16:49:26.484Z,3.53
2022-12-28T16:51:53.489Z,4.13
2022-12-28T16:54:22.820Z,4.20
2022-12-28T16:56:51.009Z,3.75
2022-12-28T16:59:24.597Z,4.10
2022-12-28T17:01:53.263Z,2.67
2022-12-28T17:04:20.773Z,4.50
2022-12-28T17:06:50.847Z,4.68
2022-12-28T17:09:18.993Z,4.20
2022-12-28T17:11:50.388Z,3.47
2022-12-28T17:14:35.867Z,7.20
2022-12-28T17:17:05.472Z,6.97
2022-12-28T17:19:32.967Z,10.20
2022-12-28T17:21:59.934Z,5.68
2022-12-28T17:24:27.041Z,5.72
2022-12-28T17:26:54.087Z,3.63
2022-12-28T17:29:21.788Z,4.18
2022-12-28T17:31:48.858Z,6.50
2022-12-28T17:34:15.964Z,5.05
2022-12-28T17:36:42.996Z,4.15
2022-12-28T17:39:10.020Z,4.38
2022-12-28T17:41:38.214Z,7.28
2022-12-28T17:44:06.671Z,5.60
2022-12-28T17:46:41.113Z,5.57
2022-12-28T17:49:12.146Z,4.07
2022-12-28T17:51:42.064Z,5.47
2022-12-28T17:54:14.665Z,4.65
2022-12-28T17:56:42.860Z,4.38
2022-12-28T17:59:16.592Z,3.80
2022-12-28T18:04:12.149Z,6.72
2022-12-28T18:06:39.411Z,4.30
2022-12-28T18:09:07.880Z,4.57
2022-12-28T18:11:35.025Z,3.90
2022-12-28T18:14:02.145Z,5.18
2022-12-28T18:16:29.316Z,5.88
2022-12-28T18:18:56.434Z,5.35
2022-12-28T18:21:23.470Z,5.47
2022-12-28T18:23:52.623Z,3.35
2022-12-28T18:26:27.801Z,4.57
2022-12-28T18:28:56.018Z,3.47
2022-12-28T18:31:23.782Z,3.00
2022-12-28T18:33:51.221Z,3.38
2022-12-28T18:36:18.791Z,3.22
2022-12-28T18:38:47.453Z,3.13
2022-12-28T18:41:16.801Z,3.00
2022-12-28T18:43:44.001Z,3.28
2022-12-28T18:46:11.280Z,2.83
2022-12-28T18:48:40.243Z,2.95
2022-12-28T18:51:12.960Z,3.78
2022-12-28T18:53:41.023Z,3.33
2022-12-28T18:56:10.959Z,3.10
2022-12-28T18:58:40.007Z,3.10
2022-12-28T19:01:25.410Z,3.33
2022-12-28T19:03:59.009Z,3.85
2022-12-28T19:06:26.318Z,5.07
2022-12-28T19:08:53.352Z,3.70
2022-12-28T19:11:20.348Z,4.03
2022-12-28T19:13:47.400Z,3.33
2022-12-28T19:16:16.830Z,3.78
2022-12-28T19:18:44.146Z,4.43
2022-12-28T19:21:39.078Z,5.05
2022-12-28T19:24:17.707Z,8.40
2022-12-28T19:26:46.287Z,4.70
2022-12-28T19:29:15.324Z,4.35
2022-12-28T19:31:42.797Z,5.10
2022-12-28T19:34:09.948Z,5.40
2022-12-28T19:36:38.149Z,7.25
2022-12-28T19:39:05.252Z,4.38
2022-12-28T19:41:32.747Z,4.10
2022-12-28T19:43:59.912Z,4.65
2022-12-28T19:46:37.042Z,6.05
2022-12-28T19:49:04.605Z,5.55
2022-12-28T19:51:33.082Z,4.78
2022-12-28T19:54:01.208Z,5.10
2022-12-28T19:56:28.288Z,5.03
2022-12-28T19:59:01.237Z,5.43
2022-12-28T20:01:33.325Z,5.32
2022-12-28T20:04:00.546Z,6.18
2022-12-28T20:06:29.481Z,5.60
2022-12-28T20:08:59.235Z,5.72
2022-12-28T20:11:27.849Z,5.85
2022-12-28T20:14:00.362Z,5.65
2022-12-28T20:16:30.551Z,5.40
2022-12-28T20:18:57.669Z,5.85
2022-12-28T20:21:25.695Z,5.70
2022-12-28T20:23:54.307Z,6.05
2022-12-28T20:26:24.538Z,6.38
2022-12-28T20:28:52.112Z,5.18
2022-12-28T20:31:20.076Z,5.72
2022-12-28T20:33:47.421Z,5.90
2022-12-28T20:36:25.922Z,4.97
2022-12-28T20:38:55.009Z,5.20
2022-12-28T20:41:42.887Z,5.22
2022-12-28T20:44:23.728Z,5.22
2022-12-28T20:46:51.696Z,5.88
2022-12-28T20:49:18.722Z,5.30
2022-12-28T20:51:47.706Z,5.22
2022-12-28T20:54:15.617Z,5.65
2022-12-28T20:56:43.857Z,5.78
2022-12-28T20:59:14.024Z,5.53
2022-12-28T21:01:42.269Z,4.95
2022-12-28T21:04:10.151Z,5.35
2022-12-28T21:06:39.957Z,5.18
2022-12-28T21:09:08.136Z,5.70
2022-12-28T21:11:35.171Z,4.72
2022-12-28T21:14:02.320Z,4.05
2022-12-28T21:16:29.368Z,4.45
2022-12-28T21:18:56.497Z,3.67
2022-12-28T21:21:23.540Z,4.65
2022-12-28T21:23:52.414Z,4.05
2022-12-28T21:26:20.969Z,3.53
2022-12-28T21:28:48.206Z,3.90
2022-12-28T21:31:15.542Z,4.90
2022-12-28T21:33:42.694Z,3.67
2022-12-28T21:36:18.173Z,4.10
2022-12-28T21:38:46.896Z,4.03
2022-12-28T21:41:40.557Z,4.03
2022-12-28T21:44:11.493Z,4.13
2022-12-28T21:46:39.112Z,3.67
2022-12-28T21:49:06.988Z,3.70
2022-12-28T21:51:35.253Z,3.47
2022-12-28T21:54:05.738Z,3.45
2022-12-28T21:56:34.843Z,3.67
2022-12-28T21:59:04.176Z,4.22
2022-12-28T22:01:50.767Z,3.30
2022-12-28T22:04:39.580Z,3.17
2022-12-28T22:07:09.288Z,3.15
2022-12-28T22:09:56.455Z,3.45
2022-12-28T22:12:34.367Z,3.58
2022-12-28T22:15:24.182Z,2.85
2022-12-28T22:17:58.902Z,3.42
2022-12-28T22:20:27.988Z,3.78
2022-12-28T22:22:56.897Z,4.28
2022-12-28T22:25:25.663Z,3.72
2022-12-28T22:27:52.771Z,3.50
2022-12-28T22:30:20.122Z,3.50
2022-12-28T22:32:47.236Z,3.55
2022-12-28T22:35:14.757Z,4.38
2022-12-28T22:37:42.843Z,3.92
2022-12-28T22:40:11.186Z,3.63
2022-12-28T22:42:45.153Z,4.35
2022-12-28T22:45:15.217Z,3.70
2022-12-28T22:47:42.991Z,3.35
2022-12-28T22:50:12.724Z,3.33
2022-12-28T22:52:40.162Z,4.07
2022-12-28T22:55:08.785Z,3.97
2022-12-28T22:57:36.693Z,3.45
2022-12-28T23:00:11.252Z,3.67
2022-12-28T23:02:38.497Z,3.38
2022-12-28T23:05:06.689Z,2.92
2022-12-28T23:07:36.805Z,3.50
2022-12-28T23:10:04.406Z,3.42
2022-12-28T23:12:31.676Z,2.70
2022-12-28T23:15:18.547Z,3.40
2022-12-28T23:17:47.982Z,3.55
2022-12-28T23:20:34.397Z,3.88
2022-12-28T23:23:19.850Z,3.47
2022-12-28T23:26:05.366Z,4.43
2022-12-28T23:28:36.831Z,3.88
2022-12-28T23:31:04.573Z,3.08
2022-12-28T23:33:31.820Z,3.28
2022-12-28T23:36:03.838Z,3.10
2022-12-28T23:38:33.075Z,2.95
2022-12-28T23:41:23.963Z,2.97
2022-12-28T23:43:50.962Z,3.00
2022-12-28T23:46:18.027Z,2.58
2022-12-28T23:48:45.138Z,2.80
2022-12-28T23:51:12.271Z,2.50
2022-12-28T23:53:39.236Z,2.75
2022-12-28T23:56:07.840Z,2.40
2022-12-28T23:58:34.888Z,2.40
